Time;durP1;ratioP1;P1;durP2;ratioP2;P2;SDS_P1;SDS_P2;PMS_P1;PMS_P2;Temp;Humidity;BMP_temperature;BMP_pressure;BME280_temperature;BME280_humidity;BME280_pressure;Samples;Min_cycle;Max_cycle;Signal;HPM_P1;HPM_P2
2023/11/13 00:01:51;;;;;;;8.52;5.30;;;;;;;;;;6291500;28;20538;-65
2023/11/13 00:04:54;;;;;;;8.60;5.75;;;;;;;;;;6294003;28;20149;-65
2023/11/13 00:07:57;;;;;;;12.07;5.90;;;;;;;;;;6286216;28;20089;-65
2023/11/13 00:10:59;;;;;;;9.95;5.60;;;;;;;;;;6290640;28;20260;-64
2023/11/13 00:14:01;;;;;;;8.35;6.22;;;;;;;;;;6290320;28;20737;-65
2023/11/13 00:17:03;;;;;;;8.98;5.68;;;;;;;;;;6295396;28;20185;-65
2023/11/13 00:20:06;;;;;;;8.82;6.47;;;;;;;;;;6286104;28;20045;-65
2023/11/13 00:23:08;;;;;;;9.57;7.43;;;;;;;;;;6277941;28;20041;-65
2023/11/13 00:26:11;;;;;;;9.45;6.78;;;;;;;;;;6290085;28;20056;-65
2023/11/13 00:29:20;;;;;;;10.98;7.38;;;;;;;;;;6284302;28;20048;-65
2023/11/13 00:32:22;;;;;;;9.77;6.38;;;;;;;;;;6271048;28;20048;-65
2023/11/13 00:35:24;;;;;;;12.40;7.10;;;;;;;;;;6273382;28;20048;-66
2023/11/13 00:38:26;;;;;;;15.95;9.60;;;;;;;;;;6293551;28;20095;-66
2023/11/13 00:41:32;;;;;;;16.13;10.40;;;;;;;;;;6281758;28;20044;-66
2023/11/13 00:44:34;;;;;;;16.42;8.88;;;;;;;;;;6273100;28;20611;-66
2023/11/13 00:47:36;;;;;;;14.05;8.65;;;;;;;;;;6300034;28;20067;-66
2023/11/13 00:50:38;;;;;;;13.77;9.65;;;;;;;;;;6295642;28;20482;-65
2023/11/13 00:53:40;;;;;;;15.80;8.68;;;;;;;;;;6284533;28;20054;-65
2023/11/13 00:56:43;;;;;;;17.83;10.35;;;;;;;;;;6303409;28;20633;-66
2023/11/13 00:59:45;;;;;;;13.55;8.57;;;;;;;;;;6270583;28;20517;-65
2023/11/13 01:02:47;;;;;;;11.93;8.35;;;;;;;;;;6297428;28;20102;-65
2023/11/13 01:05:50;;;;;;;10.40;6.32;;;;;;;;;;6287748;28;20447;-65
2023/11/13 01:08:52;;;;;;;11.77;6.57;;;;;;;;;;6292240;28;20052;-66
2023/11/13 01:11:54;;;;;;;14.43;9.02;;;;;;;;;;6300661;28;20403;-66
2023/11/13 01:14:56;;;;;;;12.63;9.80;;;;;;;;;;6287739;28;20045;-66
2023/11/13 01:17:58;;;;;;;13.90;8.15;;;;;;;;;;6298165;28;20044;-65
2023/11/13 01:21:00;;;;;;;14.85;9.50;;;;;;;;;;6297500;28;20056;-66
2023/11/13 01:24:03;;;;;;;13.40;9.77;;;;;;;;;;6295912;28;20074;-66
2023/11/13 01:27:06;;;;;;;15.65;9.85;;;;;;;;;;6288779;28;20047;-65
2023/11/13 01:30:10;;;;;;;15.02;9.55;;;;;;;;;;6271335;28;20678;-66
2023/11/13 01:33:12;;;;;;;17.17;11.13;;;;;;;;;;6289933;28;20053;-66
2023/11/13 01:36:14;;;;;;;21.73;14.05;;;;;;;;;;6283210;28;20700;-66
2023/11/13 01:39:16;;;;;;;18.10;11.45;;;;;;;;;;6289636;28;20044;-65
2023/11/13 01:42:18;;;;;;;19.80;13.48;;;;;;;;;;6287638;28;20048;-65
2023/11/13 01:45:20;;;;;;;23.20;12.75;;;;;;;;;;6290535;28;20057;-65
2023/11/13 01:48:23;;;;;;;13.25;8.85;;;;;;;;;;6259620;28;20048;-65
2023/11/13 01:51:25;;;;;;;14.35;9.50;;;;;;;;;;6274006;28;20829;-65
2023/11/13 01:54:28;;;;;;;19.63;10.43;;;;;;;;;;6291106;28;20055;-65
2023/11/13 01:57:31;;;;;;;13.38;8.73;;;;;;;;;;6276374;28;20078;-65
2023/11/13 02:00:34;;;;;;;12.60;7.47;;;;;;;;;;6257437;28;20143;-66
2023/11/13 02:03:38;;;;;;;10.32;7.00;;;;;;;;;;6300804;28;20174;-66
2023/11/13 02:06:40;;;;;;;12.15;7.00;;;;;;;;;;6298587;28;20056;-65
2023/11/13 02:09:42;;;;;;;12.63;7.70;;;;;;;;;;6289132;28;20064;-66
2023/11/13 02:12:45;;;;;;;13.82;8.80;;;;;;;;;;6285251;28;20056;-66
2023/11/13 02:15:47;;;;;;;11.02;7.97;;;;;;;;;;6269510;28;20052;-66
2023/11/13 02:18:49;;;;;;;14.00;7.97;;;;;;;;;;6289887;28;20519;-65
2023/11/13 02:21:51;;;;;;;13.15;9.13;;;;;;;;;;6299501;28;20056;-65
2023/11/13 02:24:53;;;;;;;11.02;7.57;;;;;;;;;;6272628;28;20056;-66
2023/11/13 02:28:00;;;;;;;18.48;10.82;;;;;;;;;;6259890;28;20150;-65
2023/11/13 02:31:03;;;;;;;18.15;10.65;;;;;;;;;;6260036;28;20756;-65
2023/11/13 02:34:05;;;;;;;15.18;9.90;;;;;;;;;;6288050;28;20828;-64
2023/11/13 02:37:09;;;;;;;16.50;10.68;;;;;;;;;;6293957;28;20048;-65
2023/11/13 02:40:11;;;;;;;15.25;10.23;;;;;;;;;;6288697;28;20048;-65
2023/11/13 02:43:14;;;;;;;15.48;9.82;;;;;;;;;;6295648;28;20565;-65
2023/11/13 02:46:16;;;;;;;18.10;10.90;;;;;;;;;;6275186;28;20052;-65
2023/11/13 02:49:18;;;;;;;16.52;10.68;;;;;;;;;;6278107;28;20044;-65
2023/11/13 02:52:20;;;;;;;16.15;10.35;;;;;;;;;;6301034;28;20048;-65
2023/11/13 02:55:22;;;;;;;19.98;12.73;;;;;;;;;;6288839;28;20052;-64
2023/11/13 02:58:24;;;;;;;17.90;12.07;;;;;;;;;;6287986;28;20178;-65
2023/11/13 03:01:28;;;;;;;20.02;13.07;;;;;;;;;;6276692;28;20710;-66
2023/11/13 03:04:30;;;;;;;17.60;11.52;;;;;;;;;;6276811;28;20054;-67
2023/11/13 03:07:32;;;;;;;15.90;10.10;;;;;;;;;;6272830;28;20047;-66
2023/11/13 03:10:34;;;;;;;14.27;10.25;;;;;;;;;;6270232;28;20190;-65
2023/11/13 03:13:36;;;;;;;14.85;10.10;;;;;;;;;;6288810;28;20089;-65
2023/11/13 03:16:39;;;;;;;21.50;13.10;;;;;;;;;;6274516;28;20132;-66
2023/11/13 03:19:42;;;;;;;16.50;10.95;;;;;;;;;;6302827;28;20082;-66
2023/11/13 03:22:44;;;;;;;14.65;10.43;;;;;;;;;;6296584;28;20131;-66
2023/11/13 03:25:46;;;;;;;12.38;8.98;;;;;;;;;;6269093;28;20510;-66
2023/11/13 03:28:48;;;;;;;15.77;10.85;;;;;;;;;;6270412;28;20449;-66
2023/11/13 03:31:51;;;;;;;18.30;12.98;;;;;;;;;;6290232;28;20097;-66
2023/11/13 03:34:53;;;;;;;23.73;14.68;;;;;;;;;;6278599;28;20901;-66
2023/11/13 03:37:56;;;;;;;21.10;15.07;;;;;;;;;;6270272;28;20136;-66
2023/11/13 03:40:58;;;;;;;20.17;12.32;;;;;;;;;;6290564;28;20044;-66
2023/11/13 03:44:00;;;;;;;19.90;13.23;;;;;;;;;;6284427;28;20044;-66
2023/11/13 03:47:03;;;;;;;18.52;11.30;;;;;;;;;;6285381;28;20066;-66
2023/11/13 03:50:06;;;;;;;18.90;12.55;;;;;;;;;;6289558;28;20151;-65
2023/11/13 03:53:09;;;;;;;17.58;11.82;;;;;;;;;;6286891;28;20055;-65
2023/11/13 03:56:11;;;;;;;15.23;10.60;;;;;;;;;;6286110;28;20055;-65
2023/11/13 03:59:13;;;;;;;14.90;9.73;;;;;;;;;;6269355;28;20554;-65
2023/11/13 04:02:15;;;;;;;17.00;10.52;;;;;;;;;;6285875;28;20040;-65
2023/11/13 04:05:19;;;;;;;17.70;11.07;;;;;;;;;;6276863;28;20120;-66
2023/11/13 04:08:21;;;;;;;15.38;10.98;;;;;;;;;;6285627;28;20044;-66
2023/11/13 04:11:23;;;;;;;18.70;11.48;;;;;;;;;;6288468;28;20186;-65
2023/11/13 04:14:25;;;;;;;17.85;12.43;;;;;;;;;;6286442;28;20048;-65
2023/11/13 04:17:27;;;;;;;18.35;12.18;;;;;;;;;;6291374;28;20123;-65
2023/11/13 04:20:29;;;;;;;19.10;13.25;;;;;;;;;;6274929;28;20047;-65
2023/11/13 04:23:32;;;;;;;21.02;14.38;;;;;;;;;;6291846;28;20151;-65
2023/11/13 04:26:34;;;;;;;20.90;13.02;;;;;;;;;;6290348;28;20129;-65
2023/11/13 04:29:36;;;;;;;21.50;14.95;;;;;;;;;;6283427;28;20702;-65
2023/11/13 04:32:38;;;;;;;26.55;18.92;;;;;;;;;;6287964;28;20067;-65
2023/11/13 04:35:40;;;;;;;30.85;19.75;;;;;;;;;;6286171;28;20049;-65
2023/11/13 04:38:42;;;;;;;28.48;17.83;;;;;;;;;;6285629;28;20503;-65
2023/11/13 04:41:44;;;;;;;40.25;25.42;;;;;;;;;;6287684;28;20555;-65
2023/11/13 04:44:46;;;;;;;23.80;18.30;;;;;;;;;;6284622;28;20511;-65
2023/11/13 04:47:48;;;;;;;29.33;19.08;;;;;;;;;;6289514;28;20041;-65
2023/11/13 04:50:53;;;;;;;27.15;20.38;;;;;;;;;;6289618;28;20135;-66
2023/11/13 04:53:55;;;;;;;33.90;23.35;;;;;;;;;;6286864;28;20118;-66
2023/11/13 04:56:59;;;;;;;20.40;13.30;;;;;;;;;;6287652;28;20056;-66
2023/11/13 05:00:04;;;;;;;16.55;11.80;;;;;;;;;;6266467;28;20056;-65
2023/11/13 05:03:07;;;;;;;19.00;13.20;;;;;;;;;;6283736;28;20048;-65
2023/11/13 05:06:14;;;;;;;16.60;12.05;;;;;;;;;;6291044;28;20044;-64
2023/11/13 05:09:16;;;;;;;17.80;13.55;;;;;;;;;;6282900;28;20045;-65
2023/11/13 05:12:18;;;;;;;19.40;13.98;;;;;;;;;;6284764;28;20435;-65
2023/11/13 05:15:20;;;;;;;18.38;12.55;;;;;;;;;;6285339;28;20754;-65
2023/11/13 05:18:22;;;;;;;26.63;16.65;;;;;;;;;;6282528;28;20115;-65
2023/11/13 05:21:24;;;;;;;19.58;14.88;;;;;;;;;;6287203;28;20104;-65
2023/11/13 05:24:26;;;;;;;18.83;12.05;;;;;;;;;;6283174;28;20052;-65
2023/11/13 05:27:28;;;;;;;17.85;13.55;;;;;;;;;;6283461;28;20048;-65
2023/11/13 05:30:30;;;;;;;17.98;10.70;;;;;;;;;;6288709;28;20579;-64
2023/11/13 05:33:32;;;;;;;17.95;11.35;;;;;;;;;;6284928;28;20550;-64
2023/11/13 05:36:34;;;;;;;14.80;9.82;;;;;;;;;;6290098;28;20051;-65
2023/11/13 05:39:36;;;;;;;18.42;12.38;;;;;;;;;;6289899;28;20454;-65
2023/11/13 05:42:38;;;;;;;14.30;9.23;;;;;;;;;;6287878;28;20040;-65
2023/11/13 05:45:44;;;;;;;15.20;10.48;;;;;;;;;;6296089;28;20078;-64
2023/11/13 05:48:46;;;;;;;14.38;9.57;;;;;;;;;;6287416;28;20040;-65
2023/11/13 05:51:48;;;;;;;15.35;9.73;;;;;;;;;;6289545;28;20131;-65
2023/11/13 05:54:50;;;;;;;14.38;10.32;;;;;;;;;;6286313;28;20068;-65
2023/11/13 05:57:53;;;;;;;14.48;9.57;;;;;;;;;;6288227;28;20048;-65
2023/11/13 06:00:56;;;;;;;13.40;9.52;;;;;;;;;;6286644;28;20040;-63
2023/11/13 06:03:59;;;;;;;14.48;9.10;;;;;;;;;;6293012;28;20040;-63
2023/11/13 06:07:01;;;;;;;14.50;10.35;;;;;;;;;;6286658;28;20182;-64
2023/11/13 06:10:08;;;;;;;16.80;10.55;;;;;;;;;;6289566;28;20057;-64
2023/11/13 06:13:12;;;;;;;15.70;10.65;;;;;;;;;;6289759;28;20044;-64
2023/11/13 06:16:14;;;;;;;19.27;11.18;;;;;;;;;;6296443;28;20048;-64
2023/11/13 06:19:17;;;;;;;13.00;8.30;;;;;;;;;;6293581;28;20048;-64
2023/11/13 06:22:20;;;;;;;14.43;10.13;;;;;;;;;;6289337;28;20149;-64
2023/11/13 06:25:22;;;;;;;14.32;9.48;;;;;;;;;;6289991;28;20059;-64
2023/11/13 06:28:25;;;;;;;15.40;9.85;;;;;;;;;;6288321;28;20059;-64
2023/11/13 06:31:27;;;;;;;17.40;10.30;;;;;;;;;;6287640;28;20048;-64
2023/11/13 06:34:29;;;;;;;14.77;8.88;;;;;;;;;;6286713;28;20044;-64
2023/11/13 06:37:31;;;;;;;13.05;8.88;;;;;;;;;;6288873;28;20521;-64
2023/11/13 06:40:33;;;;;;;13.55;8.70;;;;;;;;;;6295216;28;20131;-64
2023/11/13 06:43:35;;;;;;;13.57;8.32;;;;;;;;;;6289297;28;20040;-64
2023/11/13 06:46:37;;;;;;;15.65;10.63;;;;;;;;;;6287033;28;20114;-63
2023/11/13 06:49:40;;;;;;;14.80;9.07;;;;;;;;;;6287842;28;20055;-64
2023/11/13 06:52:41;;;;;;;11.13;8.52;;;;;;;;;;6296931;28;20059;-63
2023/11/13 06:55:43;;;;;;;14.65;9.75;;;;;;;;;;6293153;28;20052;-64
2023/11/13 06:58:49;;;;;;;17.33;10.43;;;;;;;;;;6278055;28;20048;-63
2023/11/13 07:01:51;;;;;;;12.90;9.00;;;;;;;;;;6289763;28;20643;-64
2023/11/13 07:04:53;;;;;;;12.90;7.63;;;;;;;;;;6293202;28;20057;-65
2023/11/13 07:07:56;;;;;;;12.63;8.65;;;;;;;;;;6292197;28;20049;-64
2023/11/13 07:10:59;;;;;;;13.15;8.85;;;;;;;;;;6287966;28;20171;-65
2023/11/13 07:14:01;;;;;;;12.32;8.52;;;;;;;;;;6287710;28;20048;-64
2023/11/13 07:17:03;;;;;;;12.95;9.65;;;;;;;;;;6285716;28;20055;-65
2023/11/13 07:20:06;;;;;;;12.73;8.85;;;;;;;;;;6289437;28;20056;-65
2023/11/13 07:23:16;;;;;;;18.27;13.02;;;;;;;;;;6293438;28;20059;-66
2023/11/13 07:26:18;;;;;;;13.27;10.10;;;;;;;;;;6282906;28;20063;-65
2023/11/13 07:29:21;;;;;;;16.15;9.40;;;;;;;;;;6289758;28;20594;-64
2023/11/13 07:32:26;;;;;;;17.23;11.75;;;;;;;;;;6292806;28;20066;-65
2023/11/13 07:35:28;;;;;;;18.67;14.48;;;;;;;;;;6295178;28;20056;-65
2023/11/13 07:38:31;;;;;;;21.23;14.45;;;;;;;;;;6284500;28;20055;-65
2023/11/13 07:41:33;;;;;;;15.80;11.05;;;;;;;;;;6276636;28;20556;-65
2023/11/13 07:44:36;;;;;;;21.58;16.10;;;;;;;;;;6283097;28;20060;-65
2023/11/13 07:47:39;;;;;;;23.00;15.75;;;;;;;;;;6282234;28;20139;-65
2023/11/13 07:50:42;;;;;;;21.15;15.70;;;;;;;;;;6285360;28;20037;-65
2023/11/13 07:54:00;;;;;;;24.05;14.25;;;;;;;;;;6284026;28;20056;-66
2023/11/13 07:57:04;;;;;;;22.85;16.35;;;;;;;;;;6284727;28;20048;-64
2023/11/13 08:00:11;;;;;;;25.30;16.92;;;;;;;;;;6288519;28;20122;-62
2023/11/13 08:03:16;;;;;;;27.70;16.52;;;;;;;;;;6292103;28;20133;-64
2023/11/13 08:06:18;;;;;;;;;;;;;;;;;;6288857;28;20060;-63
2023/11/13 08:09:20;;;;;;;24.65;15.82;;;;;;;;;;6289615;28;19931;-65
2023/11/13 08:12:23;;;;;;;24.00;14.27;;;;;;;;;;6286162;28;20101;-65
2023/11/13 08:15:25;;;;;;;26.17;16.30;;;;;;;;;;6287395;28;20141;-65
2023/11/13 08:18:28;;;;;;;22.55;14.50;;;;;;;;;;6286403;28;20424;-66
2023/11/13 08:21:31;;;;;;;19.55;13.70;;;;;;;;;;6286913;28;20047;-65
2023/11/13 08:24:33;;;;;;;15.20;11.18;;;;;;;;;;6293276;28;20052;-65
2023/11/13 08:27:38;;;;;;;21.70;14.13;;;;;;;;;;6294829;28;20055;-66
2023/11/13 08:30:43;;;;;;;16.27;9.90;;;;;;;;;;6283333;28;20068;-65
2023/11/13 08:33:47;;;;;;;18.35;11.13;;;;;;;;;;6284570;28;20131;-66
2023/11/13 08:36:50;;;;;;;15.25;9.00;;;;;;;;;;6283399;28;20049;-66
2023/11/13 08:39:53;;;;;;;17.45;10.07;;;;;;;;;;6285438;28;20075;-65
2023/11/13 08:42:56;;;;;;;16.63;10.38;;;;;;;;;;6285760;28;20044;-66
2023/11/13 08:46:01;;;;;;;11.20;7.10;;;;;;;;;;6271518;28;20048;-66
2023/11/13 08:49:05;;;;;;;7.78;4.47;;;;;;;;;;6284416;28;20047;-66
2023/11/13 08:52:10;;;;;;;11.02;7.65;;;;;;;;;;6285980;28;20665;-66
2023/11/13 08:55:17;;;;;;;6.82;4.25;;;;;;;;;;6275590;28;20044;-65
2023/11/13 08:58:19;;;;;;;8.75;5.28;;;;;;;;;;6292356;28;20079;-66
2023/11/13 09:01:25;;;;;;;12.88;5.63;;;;;;;;;;6296819;28;20813;-66
2023/11/13 09:04:28;;;;;;;11.23;5.97;;;;;;;;;;6283745;28;20045;-65
2023/11/13 09:07:31;;;;;;;10.70;5.63;;;;;;;;;;6287236;28;20106;-65
2023/11/13 09:10:33;;;;;;;10.23;6.20;;;;;;;;;;6291655;28;20058;-66
2023/11/13 09:13:35;;;;;;;14.07;7.25;;;;;;;;;;6288561;28;20053;-65
2023/11/13 09:16:41;;;;;;;13.35;8.02;;;;;;;;;;6289814;28;20119;-66
2023/11/13 09:19:43;;;;;;;11.57;8.05;;;;;;;;;;6294632;28;20048;-65
2023/11/13 09:22:50;;;;;;;12.50;7.95;;;;;;;;;;6291909;28;20511;-65
2023/11/13 09:25:52;;;;;;;11.98;7.22;;;;;;;;;;6305896;28;20056;-65
2023/11/13 09:28:55;;;;;;;8.95;5.88;;;;;;;;;;6291561;28;20048;-65
2023/11/13 09:31:57;;;;;;;8.85;5.47;;;;;;;;;;6288843;28;20040;-65
2023/11/13 09:34:59;;;;;;;8.30;5.28;;;;;;;;;;6308013;28;20519;-64
2023/11/13 09:38:01;;;;;;;9.18;5.70;;;;;;;;;;6292487;28;20036;-65
2023/11/13 09:41:04;;;;;;;11.50;7.78;;;;;;;;;;6289897;28;20083;-64
2023/11/13 09:44:06;;;;;;;7.93;4.80;;;;;;;;;;6292824;28;20060;-65
2023/11/13 09:47:13;;;;;;;9.18;5.65;;;;;;;;;;6292019;28;20055;-65
2023/11/13 09:50:16;;;;;;;9.32;4.88;;;;;;;;;;6294850;28;20049;-65
2023/11/13 09:53:20;;;;;;;8.07;5.65;;;;;;;;;;6295309;28;20105;-65
2023/11/13 09:56:27;;;;;;;8.52;4.65;;;;;;;;;;6282307;28;20249;-65
2023/11/13 09:59:34;;;;;;;7.75;5.00;;;;;;;;;;6272046;28;20053;-65
2023/11/13 10:02:41;;;;;;;5.47;2.88;;;;;;;;;;6288962;28;20044;-65
2023/11/13 10:05:44;;;;;;;3.67;2.33;;;;;;;;;;6304973;28;20055;-65
2023/11/13 10:08:49;;;;;;;5.85;3.40;;;;;;;;;;6292563;28;20056;-65
2023/11/13 10:11:52;;;;;;;9.25;4.90;;;;;;;;;;6289094;28;20071;-65
2023/11/13 10:15:12;;;;;;;6.30;3.10;;;;;;;;;;6286737;28;20048;-65
2023/11/13 10:18:15;;;;;;;9.50;3.55;;;;;;;;;;6289915;28;20055;-65
2023/11/13 10:21:43;;;;;;;7.80;4.65;;;;;;;;;;6288138;28;20048;-65
2023/11/13 10:24:56;;;;;;;6.05;3.83;;;;;;;;;;6285094;28;20056;-65
2023/11/13 10:28:01;;;;;;;4.22;2.10;;;;;;;;;;6284223;28;20095;-65
2023/11/13 10:31:12;;;;;;;7.47;3.92;;;;;;;;;;6290978;28;20044;-65
2023/11/13 10:34:15;;;;;;;8.57;4.20;;;;;;;;;;6290810;28;20587;-65
2023/11/13 10:37:18;;;;;;;7.68;4.75;;;;;;;;;;6287279;28;20052;-65
2023/11/13 10:40:29;;;;;;;8.43;4.05;;;;;;;;;;6296849;28;20597;-65
2023/11/13 10:43:43;;;;;;;10.50;4.50;;;;;;;;;;6287942;28;20036;-65
2023/11/13 10:46:45;;;;;;;7.00;4.05;;;;;;;;;;6286068;28;20743;-65
2023/11/13 10:49:49;;;;;;;6.57;4.60;;;;;;;;;;6286541;28;20632;-65
2023/11/13 10:52:54;;;;;;;6.68;4.03;;;;;;;;;;6292220;28;20041;-65
2023/11/13 10:55:58;;;;;;;6.10;4.28;;;;;;;;;;6275247;28;20045;-65
2023/11/13 10:59:02;;;;;;;6.63;3.58;;;;;;;;;;6289071;28;20071;-65
2023/11/13 11:02:08;;;;;;;7.88;3.63;;;;;;;;;;6289832;28;20048;-65
2023/11/13 11:05:22;;;;;;;9.07;3.90;;;;;;;;;;6288040;28;20044;-65
2023/11/13 11:08:25;;;;;;;8.05;5.90;;;;;;;;;;6281417;28;20056;-65
2023/11/13 11:11:30;;;;;;;9.13;4.60;;;;;;;;;;6286341;28;20059;-65
2023/11/13 11:14:52;;;;;;;;;;;;;;;;;;6287979;28;20044;-65
2023/11/13 11:17:59;;;;;;;5.80;3.65;;;;;;;;;;6295350;28;19934;-65
2023/11/13 11:21:22;;;;;;;7.55;4.10;;;;;;;;;;6270699;28;20040;-65
2023/11/13 11:24:42;;;;;;;5.75;3.72;;;;;;;;;;6293607;28;20466;-65
2023/11/13 11:27:45;;;;;;;8.18;3.28;;;;;;;;;;6286035;28;20265;-65
2023/11/13 11:30:47;;;;;;;6.40;3.25;;;;;;;;;;6266117;28;20037;-66
2023/11/13 11:33:49;;;;;;;6.00;2.80;;;;;;;;;;6282727;28;20052;-65
2023/11/13 11:36:58;;;;;;;7.75;2.45;;;;;;;;;;6288845;28;20857;-65
2023/11/13 11:40:04;;;;;;;4.00;2.28;;;;;;;;;;6285251;28;20055;-65
2023/11/13 11:43:07;;;;;;;4.57;2.72;;;;;;;;;;6284447;28;20036;-65
2023/11/13 11:46:13;;;;;;;6.20;2.17;;;;;;;;;;6282914;28;20052;-65
2023/11/13 11:49:19;;;;;;;4.40;2.17;;;;;;;;;;6288431;28;20052;-65
2023/11/13 11:52:57;;;;;;;4.85;2.17;;;;;;;;;;6287588;28;20128;-65
2023/11/13 11:55:59;;;;;;;6.65;1.98;;;;;;;;;;6212017;28;20088;-65
2023/11/13 11:59:01;;;;;;;3.40;1.33;;;;;;;;;;6285051;28;20045;-65
2023/11/13 12:02:03;;;;;;;5.90;2.85;;;;;;;;;;6283459;28;20040;-65
2023/11/13 12:05:07;;;;;;;5.13;2.60;;;;;;;;;;6297226;28;20075;-64
2023/11/13 12:08:11;;;;;;;3.33;1.63;;;;;;;;;;6272657;28;20044;-65
2023/11/13 12:11:19;;;;;;;6.38;1.85;;;;;;;;;;6288374;28;20435;-65
2023/11/13 12:14:21;;;;;;;4.22;2.28;;;;;;;;;;6283693;28;20044;-65
2023/11/13 12:17:24;;;;;;;4.40;2.00;;;;;;;;;;6288665;28;20704;-65
2023/11/13 12:20:27;;;;;;;3.50;1.70;;;;;;;;;;6290417;28;20059;-65
2023/11/13 12:23:31;;;;;;;3.50;1.35;;;;;;;;;;6287481;28;20760;-65
2023/11/13 12:26:33;;;;;;;3.55;1.27;;;;;;;;;;6281771;28;20578;-64
2023/11/13 12:29:36;;;;;;;4.43;2.15;;;;;;;;;;6281613;28;20047;-65
2023/11/13 12:32:39;;;;;;;4.55;1.38;;;;;;;;;;6289585;28;20040;-65
2023/11/13 12:35:42;;;;;;;2.53;1.05;;;;;;;;;;6290507;28;20043;-64
2023/11/13 12:38:47;;;;;;;4.20;1.15;;;;;;;;;;6271694;28;20055;-64
2023/11/13 12:41:53;;;;;;;5.72;1.77;;;;;;;;;;6281137;28;20036;-64
2023/11/13 12:44:55;;;;;;;3.00;1.27;;;;;;;;;;6282731;28;20055;-65
2023/11/13 12:48:11;;;;;;;3.53;1.95;;;;;;;;;;6292822;28;20056;-65
2023/11/13 12:51:16;;;;;;;3.28;1.10;;;;;;;;;;6274921;28;20044;-65
2023/11/13 12:54:18;;;;;;;5.13;2.28;;;;;;;;;;6285970;28;20537;-65
2023/11/13 12:57:20;;;;;;;3.30;1.13;;;;;;;;;;6285811;28;20060;-66
2023/11/13 13:00:26;;;;;;;3.75;1.35;;;;;;;;;;6286310;28;20155;-66
2023/11/13 13:03:30;;;;;;;2.45;1.13;;;;;;;;;;6291529;28;20582;-64
2023/11/13 13:06:39;;;;;;;3.15;1.02;;;;;;;;;;6289363;28;20052;-65
2023/11/13 13:09:41;;;;;;;2.58;0.75;;;;;;;;;;6291523;28;20558;-65
2023/11/13 13:12:48;;;;;;;2.10;1.23;;;;;;;;;;6285737;28;20055;-65
2023/11/13 13:15:50;;;;;;;4.68;1.17;;;;;;;;;;6287852;28;20482;-64
2023/11/13 13:18:52;;;;;;;2.80;1.10;;;;;;;;;;6288365;28;20039;-69
2023/11/13 13:21:54;;;;;;;6.03;1.30;;;;;;;;;;6281588;28;20045;-64
2023/11/13 13:24:56;;;;;;;1.80;0.70;;;;;;;;;;6284840;28;20044;-65
2023/11/13 13:28:03;;;;;;;30.52;15.50;;;;;;;;;;6279625;28;20060;-64
2023/11/13 13:31:07;;;;;;;2.25;0.80;;;;;;;;;;6277229;28;20029;-65
2023/11/13 13:34:13;;;;;;;1.83;0.70;;;;;;;;;;6296392;28;20055;-65
2023/11/13 13:37:15;;;;;;;2.38;0.93;;;;;;;;;;6283333;28;20052;-64
2023/11/13 13:40:17;;;;;;;4.65;1.50;;;;;;;;;;6286078;28;20048;-64
2023/11/13 13:43:19;;;;;;;4.18;1.65;;;;;;;;;;6287997;28;20044;-65
2023/11/13 13:46:21;;;;;;;2.13;0.80;;;;;;;;;;6290010;28;20048;-65
2023/11/13 13:49:24;;;;;;;3.08;1.33;;;;;;;;;;6292118;28;20131;-64
2023/11/13 13:52:30;;;;;;;2.70;0.80;;;;;;;;;;6284641;28;20045;-64
2023/11/13 13:55:34;;;;;;;4.03;1.48;;;;;;;;;;6287262;28;20600;-65
2023/11/13 13:58:37;;;;;;;2.92;1.58;;;;;;;;;;6284432;28;20549;-64
2023/11/13 14:01:40;;;;;;;5.60;1.70;;;;;;;;;;6284763;28;20052;-64
2023/11/13 14:04:42;;;;;;;6.72;3.05;;;;;;;;;;6288404;28;20135;-64
2023/11/13 14:07:46;;;;;;;5.18;1.77;;;;;;;;;;6287726;28;20140;-64
2023/11/13 14:10:49;;;;;;;4.72;2.35;;;;;;;;;;6295352;28;20056;-64
2023/11/13 14:13:57;;;;;;;3.70;1.33;;;;;;;;;;6287210;28;20357;-64
2023/11/13 14:16:59;;;;;;;3.97;1.67;;;;;;;;;;6292709;28;20709;-64
2023/11/13 14:20:02;;;;;;;3.78;0.98;;;;;;;;;;6291331;28;20040;-64
2023/11/13 14:23:04;;;;;;;4.63;1.45;;;;;;;;;;6283966;28;20132;-65
2023/11/13 14:26:08;;;;;;;2.40;1.02;;;;;;;;;;6277192;28;20036;-65
2023/11/13 14:29:16;;;;;;;;;;;;;;;;;;6279174;28;20056;-65
2023/11/13 14:32:18;;;;;;;4.32;1.90;;;;;;;;;;6284348;28;19974;-65
2023/11/13 14:35:21;;;;;;;10.73;4.75;;;;;;;;;;6285687;28;20052;-64
2023/11/13 14:38:23;;;;;;;10.52;5.28;;;;;;;;;;6281276;28;20057;-64
2023/11/13 14:41:26;;;;;;;21.65;10.60;;;;;;;;;;6282234;28;20055;-64
2023/11/13 14:44:28;;;;;;;7.40;2.53;;;;;;;;;;6291985;28;20053;-64
2023/11/13 14:47:31;;;;;;;4.03;1.20;;;;;;;;;;6282326;28;20036;-64
2023/11/13 14:50:35;;;;;;;3.25;1.33;;;;;;;;;;6285917;28;20052;-64
2023/11/13 14:53:37;;;;;;;6.53;3.15;;;;;;;;;;6262823;28;20051;-64
2023/11/13 14:56:39;;;;;;;7.50;3.67;;;;;;;;;;6288456;28;20048;-63
2023/11/13 14:59:41;;;;;;;7.47;2.80;;;;;;;;;;6289155;28;20494;-63
2023/11/13 15:02:44;;;;;;;5.55;1.95;;;;;;;;;;6294618;28;20122;-63
2023/11/13 15:05:46;;;;;;;6.07;2.30;;;;;;;;;;6285821;28;20053;-63
2023/11/13 15:08:49;;;;;;;4.30;1.38;;;;;;;;;;6290184;28;20059;-63
2023/11/13 15:11:51;;;;;;;6.03;2.88;;;;;;;;;;6288990;28;20052;-68
2023/11/13 15:14:53;;;;;;;6.85;2.58;;;;;;;;;;6287794;28;20481;-68
2023/11/13 15:17:55;;;;;;;19.17;7.72;;;;;;;;;;6287528;28;20040;-68
2023/11/13 15:20:57;;;;;;;14.43;6.93;;;;;;;;;;6287087;28;20044;-68
2023/11/13 15:23:59;;;;;;;18.20;6.65;;;;;;;;;;6268072;28;20051;-68
2023/11/13 15:27:01;;;;;;;31.02;17.63;;;;;;;;;;6288578;28;20056;-69
2023/11/13 15:30:11;;;;;;;30.17;18.48;;;;;;;;;;6286920;28;20135;-69
2023/11/13 15:33:15;;;;;;;17.65;13.27;;;;;;;;;;6270927;28;20044;-69
2023/11/13 15:36:20;;;;;;;14.38;8.30;;;;;;;;;;6287444;28;20550;-70
2023/11/13 15:39:22;;;;;;;14.75;12.85;;;;;;;;;;6284477;28;20225;-70
2023/11/13 15:42:24;;;;;;;19.83;16.35;;;;;;;;;;6286853;28;20045;-71
2023/11/13 15:45:26;;;;;;;16.52;12.52;;;;;;;;;;6273193;28;20044;-70
2023/11/13 15:48:29;;;;;;;19.55;12.98;;;;;;;;;;6285410;28;20561;-71
2023/11/13 15:51:31;;;;;;;34.10;18.63;;;;;;;;;;6290755;28;20040;-71
2023/11/13 15:54:34;;;;;;;40.15;18.60;;;;;;;;;;6292154;28;20574;-70
2023/11/13 15:57:36;;;;;;;44.88;19.98;;;;;;;;;;6272668;28;20037;-70
2023/11/13 16:00:38;;;;;;;57.35;24.75;;;;;;;;;;6284910;28;20079;-70
2023/11/13 16:03:41;;;;;;;71.15;29.58;;;;;;;;;;6271246;28;20126;-70
2023/11/13 16:06:46;;;;;;;38.80;19.42;;;;;;;;;;6294528;28;20109;-70
2023/11/13 16:09:48;;;;;;;43.92;21.77;;;;;;;;;;6290820;28;20043;-69
2023/11/13 16:12:52;;;;;;;73.57;34.85;;;;;;;;;;6287456;28;20052;-70
2023/11/13 16:15:54;;;;;;;36.38;18.90;;;;;;;;;;6271967;28;20056;-70
2023/11/13 16:18:56;;;;;;;25.45;14.75;;;;;;;;;;6293421;28;20119;-70
2023/11/13 16:21:58;;;;;;;61.22;33.72;;;;;;;;;;6287630;28;20063;-69
2023/11/13 16:25:00;;;;;;;48.50;28.08;;;;;;;;;;6275702;28;20059;-70
2023/11/13 16:28:04;;;;;;;37.95;18.88;;;;;;;;;;6285564;28;20047;-68
2023/11/13 16:31:07;;;;;;;27.75;16.50;;;;;;;;;;6284303;28;20067;-69
2023/11/13 16:34:11;;;;;;;30.80;15.52;;;;;;;;;;6268009;28;20828;-69
2023/11/13 16:37:13;;;;;;;43.10;23.85;;;;;;;;;;6289855;28;20040;-69
2023/11/13 16:40:18;;;;;;;45.05;21.52;;;;;;;;;;6290508;28;20514;-70
2023/11/13 16:43:21;;;;;;;43.55;19.45;;;;;;;;;;6286362;28;20048;-70
2023/11/13 16:46:23;;;;;;;36.53;17.88;;;;;;;;;;6288099;28;20044;-70
2023/11/13 16:49:26;;;;;;;41.03;19.85;;;;;;;;;;6288265;28;20048;-70
2023/11/13 16:52:29;;;;;;;36.03;16.40;;;;;;;;;;6289540;28;20051;-70
2023/11/13 16:55:31;;;;;;;31.13;14.68;;;;;;;;;;6286529;28;20056;-69
2023/11/13 16:58:33;;;;;;;26.83;14.10;;;;;;;;;;6283186;28;20515;-68
2023/11/13 17:01:36;;;;;;;32.13;15.32;;;;;;;;;;6281107;28;20052;-69
2023/11/13 17:04:38;;;;;;;22.20;11.82;;;;;;;;;;6266609;28;20173;-69
2023/11/13 17:07:40;;;;;;;30.35;16.08;;;;;;;;;;6284278;28;20053;-69
2023/11/13 17:10:43;;;;;;;135.95;82.75;;;;;;;;;;6277862;28;20044;-69
2023/11/13 17:13:45;;;;;;;64.40;34.70;;;;;;;;;;6282407;28;20230;-70
2023/11/13 17:16:57;;;;;;;45.00;20.10;;;;;;;;;;6282851;28;20048;-69
2023/11/13 17:19:59;;;;;;;48.85;20.85;;;;;;;;;;6286611;28;20040;-69
2023/11/13 17:23:06;;;;;;;52.53;22.95;;;;;;;;;;6283222;28;20041;-69
2023/11/13 17:26:08;;;;;;;41.22;20.63;;;;;;;;;;6278507;28;20052;-70
2023/11/13 17:29:10;;;;;;;30.90;14.48;;;;;;;;;;6280119;28;20131;-70
2023/11/13 17:32:14;;;;;;;23.55;10.05;;;;;;;;;;6281228;28;20048;-70
2023/11/13 17:35:20;;;;;;;29.08;15.40;;;;;;;;;;6264756;28;20084;-69
2023/11/13 17:38:23;;;;;;;70.75;38.90;;;;;;;;;;6278934;28;20805;-70
2023/11/13 17:41:25;;;;;;;59.20;36.63;;;;;;;;;;6280728;28;20032;-70
2023/11/13 17:44:28;;;;;;;26.77;16.13;;;;;;;;;;6265812;28;20044;-70
2023/11/13 17:47:30;;;;;;;22.15;10.23;;;;;;;;;;6268018;28;20049;-69
2023/11/13 17:50:32;;;;;;;16.48;6.63;;;;;;;;;;6286922;28;20044;-71
2023/11/13 17:53:34;;;;;;;13.90;10.35;;;;;;;;;;6286601;28;20142;-69
2023/11/13 17:56:36;;;;;;;11.02;7.47;;;;;;;;;;6287381;28;20044;-69
2023/11/13 17:59:39;;;;;;;29.77;17.02;;;;;;;;;;6286508;28;20055;-70
2023/11/13 18:02:41;;;;;;;26.33;14.73;;;;;;;;;;6287480;28;20529;-71